Time;durP1;ratioP1;P1;durP2;ratioP2;P2;SDS_P1;SDS_P2;PMS_P1;PMS_P2;Temp;Humidity;BMP_temperature;BMP_pressure;BME280_temperature;BME280_humidity;BME280_pressure;Samples;Min_cycle;Max_cycle;Signal;HPM_P1;HPM_P2
2024/04/09 00:01:55;;;;;;;3.20;2.45;;;;;;;14.95;100.00;100083.41;5333819;26;20297;-82
2024/04/09 00:04:22;;;;;;;3.10;2.00;;;;;;;15.06;100.00;100077.00;5368862;26;20250;-83
2024/04/09 00:06:50;;;;;;;2.95;1.80;;;;;;;15.11;100.00;100086.03;5305596;26;20263;-82
2024/04/09 00:09:20;;;;;;;2.85;2.13;;;;;;;14.96;100.00;100075.00;5344326;26;20750;-82
2024/04/09 00:11:53;;;;;;;5.53;2.13;;;;;;;14.91;100.00;100093.19;5335053;26;20267;-83
2024/04/09 00:14:21;;;;;;;5.30;2.28;;;;;;;14.80;100.00;100079.41;5381503;26;20296;-82
2024/04/09 00:16:48;;;;;;;2.92;1.88;;;;;;;14.92;100.00;100097.53;5364135;26;20265;-82
2024/04/09 00:19:17;;;;;;;2.60;1.25;;;;;;;14.88;100.00;100101.84;5376483;26;20313;-82
2024/04/09 00:21:44;;;;;;;4.50;1.30;;;;;;;14.74;100.00;100104.13;5313548;26;20270;-82
2024/04/09 00:24:12;;;;;;;3.15;1.27;;;;;;;14.73;100.00;100081.53;5368782;26;20257;-82
2024/04/09 00:26:39;;;;;;;3.22;0.85;;;;;;;14.67;100.00;100098.06;5364621;26;20278;-82
2024/04/09 00:29:07;;;;;;;2.35;1.08;;;;;;;14.83;100.00;100111.63;5351690;26;20258;-82
2024/04/09 00:31:34;;;;;;;1.92;0.40;;;;;;;14.84;100.00;100104.28;5336367;26;20296;-82
2024/04/09 00:34:01;;;;;;;1.30;0.40;;;;;;;14.71;100.00;100083.69;5351293;26;20258;-82
2024/04/09 00:36:29;;;;;;;4.28;0.70;;;;;;;14.68;100.00;100100.53;5371464;26;20258;-81
2024/04/09 00:39:00;;;;;;;0.43;0.20;;;;;;;14.79;100.00;100125.97;5312812;26;20293;-82
2024/04/09 00:41:27;;;;;;;2.97;0.47;;;;;;;14.69;100.00;100113.09;5316837;26;20257;-82
2024/04/09 00:43:55;;;;;;;0.90;0.20;;;;;;;14.82;100.00;100143.75;5316452;26;20859;-82
2024/04/09 00:46:23;;;;;;;1.48;0.20;;;;;;;14.61;100.00;100137.19;5335099;26;20258;-81
2024/04/09 00:48:53;;;;;;;1.67;0.20;;;;;;;14.63;100.00;100146.75;5310671;26;20646;-82
2024/04/09 00:51:20;;;;;;;2.78;0.28;;;;;;;14.54;100.00;100112.88;5339833;26;20359;-82
2024/04/09 00:53:49;;;;;;;3.70;0.43;;;;;;;14.52;100.00;100127.81;5362653;26;20356;-82
2024/04/09 00:56:17;;;;;;;2.40;0.20;;;;;;;14.57;100.00;100139.59;5363398;26;20264;-82
2024/04/09 00:58:47;;;;;;;0.98;0.30;;;;;;;14.57;100.00;100157.84;5376062;26;20266;-82
2024/04/09 01:01:16;;;;;;;1.77;0.30;;;;;;;14.53;100.00;100152.09;5344221;26;20261;-81
2024/04/09 01:03:45;;;;;;;3.65;0.38;;;;;;;14.49;100.00;100155.53;5296786;26;20305;-82
2024/04/09 01:06:13;;;;;;;2.97;0.40;;;;;;;14.61;100.00;100153.53;5344575;26;20265;-82
2024/04/09 01:08:41;;;;;;;2.92;0.20;;;;;;;14.56;100.00;100148.84;5322684;26;20300;-82
2024/04/09 01:11:08;;;;;;;4.25;0.60;;;;;;;14.65;100.00;100182.75;5363628;26;20676;-81
2024/04/09 01:13:38;;;;;;;3.60;0.40;;;;;;;14.66;100.00;100186.28;5343457;26;20321;-81
2024/04/09 01:16:06;;;;;;;3.15;0.50;;;;;;;14.52;100.00;100191.25;5336652;26;20262;-81
2024/04/09 01:18:33;;;;;;;2.50;0.40;;;;;;;14.35;100.00;100171.41;5359945;26;20710;-81
2024/04/09 01:21:00;;;;;;;2.97;0.60;;;;;;;14.54;100.00;100180.94;5338120;26;20397;-82
2024/04/09 01:23:28;;;;;;;1.77;0.90;;;;;;;14.58;100.00;100209.34;5309082;26;20301;-81
2024/04/09 01:25:55;;;;;;;1.55;0.50;;;;;;;14.46;100.00;100189.53;5359828;26;20266;-81
2024/04/09 01:28:23;;;;;;;2.55;0.60;;;;;;;14.41;100.00;100224.88;5304010;26;20390;-82
2024/04/09 01:30:52;;;;;;;1.00;0.20;;;;;;;14.34;100.00;100243.25;5346182;26;20368;-81
2024/04/09 01:33:19;;;;;;;1.48;0.30;;;;;;;14.34;100.00;100251.44;5374415;26;20273;-81
2024/04/09 01:35:46;;;;;;;1.25;0.20;;;;;;;14.28;100.00;100266.00;5336182;26;20736;-81
2024/04/09 01:38:13;;;;;;;3.17;0.30;;;;;;;14.24;100.00;100256.69;5310721;26;20263;-82
2024/04/09 01:40:41;;;;;;;1.13;0.30;;;;;;;14.24;100.00;100250.44;5371388;26;20262;-81
2024/04/09 01:43:08;;;;;;;5.78;0.30;;;;;;;14.19;100.00;100258.50;5335143;26;20262;-81
2024/04/09 01:45:36;;;;;;;2.13;0.30;;;;;;;14.14;100.00;100250.22;5355600;26;20301;-81
2024/04/09 01:48:07;;;;;;;4.18;0.30;;;;;;;13.89;100.00;100214.41;5384431;26;20364;-81
2024/04/09 01:50:37;;;;;;;2.95;0.30;;;;;;;14.06;100.00;100251.47;5340396;26;20663;-81
2024/04/09 01:53:05;;;;;;;2.45;0.38;;;;;;;13.86;100.00;100213.00;5342763;26;20371;-81
2024/04/09 01:55:32;;;;;;;6.20;0.30;;;;;;;13.96;100.00;100234.13;5375698;26;20304;-81
2024/04/09 01:58:04;;;;;;;3.90;0.50;;;;;;;13.99;100.00;100280.72;5351927;26;20292;-81
2024/04/09 02:00:31;;;;;;;3.38;0.47;;;;;;;13.99;100.00;100250.78;5369107;26;20873;-81
2024/04/09 02:03:01;;;;;;;4.80;0.43;;;;;;;13.93;100.00;100259.94;5337105;26;20321;-81
2024/04/09 02:05:28;;;;;;;5.43;0.30;;;;;;;13.79;100.00;100252.31;5313461;26;20345;-80
2024/04/09 02:07:56;;;;;;;7.55;0.40;;;;;;;13.87;100.00;100271.78;5315416;26;20262;-80
2024/04/09 02:10:23;;;;;;;4.28;0.40;;;;;;;13.84;100.00;100277.72;5307638;26;20711;-81
2024/04/09 02:12:51;;;;;;;6.68;0.50;;;;;;;13.80;100.00;100275.72;5362626;26;20359;-81
2024/04/09 02:15:18;;;;;;;2.58;0.35;;;;;;;13.69;100.00;100276.59;5376394;26;20302;-81
2024/04/09 02:17:46;;;;;;;7.50;0.52;;;;;;;13.67;100.00;100282.25;5389371;26;20324;-81
2024/04/09 02:20:13;;;;;;;3.38;0.55;;;;;;;13.49;100.00;100274.28;5362368;26;20278;-81
2024/04/09 02:22:40;;;;;;;7.10;0.40;;;;;;;13.46;100.00;100261.19;5377008;26;20262;-81
2024/04/09 02:25:08;;;;;;;5.07;0.63;;;;;;;13.59;100.00;100296.25;5341480;26;20759;-80
2024/04/09 02:27:35;;;;;;;4.53;0.65;;;;;;;13.49;100.00;100296.03;5316825;26;20674;-80
2024/04/09 02:30:03;;;;;;;6.43;0.32;;;;;;;13.44;100.00;100276.09;5363717;26;20266;-80
2024/04/09 02:32:31;;;;;;;6.07;0.45;;;;;;;13.55;100.00;100310.56;5368590;26;20312;-80
2024/04/09 02:35:01;;;;;;;12.07;1.15;;;;;;;13.35;100.00;100291.94;5368191;26;20305;-80
2024/04/09 02:37:28;;;;;;;6.43;0.40;;;;;;;13.23;100.00;100295.75;5304392;26;20384;-81
2024/04/09 02:39:56;;;;;;;6.82;0.60;;;;;;;13.51;100.00;100310.22;5337696;26;20262;-80
2024/04/09 02:42:24;;;;;;;7.47;0.77;;;;;;;13.44;100.00;100306.81;5364240;26;20782;-81
2024/04/09 02:44:52;;;;;;;8.73;0.70;;;;;;;13.39;100.00;100295.81;5368305;26;20618;-80
2024/04/09 02:47:19;;;;;;;9.07;1.00;;;;;;;13.25;100.00;100283.56;5347330;26;20394;-81
2024/04/09 02:49:47;;;;;;;7.10;0.63;;;;;;;13.10;100.00;100291.38;5334488;26;20333;-80
2024/04/09 02:52:15;;;;;;;9.10;0.40;;;;;;;13.23;100.00;100307.44;5358116;26;20730;-80
2024/04/09 02:54:42;;;;;;;9.02;0.95;;;;;;;13.23;100.00;100284.88;5325024;26;20264;-80
2024/04/09 02:57:10;;;;;;;6.47;1.05;;;;;;;13.29;100.00;100290.19;5334168;26;20763;-80
2024/04/09 02:59:39;;;;;;;9.02;0.95;;;;;;;13.27;100.00;100296.94;5324688;26;20263;-80
2024/04/09 03:02:06;;;;;;;8.43;0.90;;;;;;;13.02;100.00;100271.94;5303055;26;20744;-80
2024/04/09 03:04:34;;;;;;;6.00;0.52;;;;;;;13.20;100.00;100275.31;5301371;26;20263;-80
2024/04/09 03:07:03;;;;;;;8.88;0.90;;;;;;;13.15;100.00;100266.22;5297355;26;20264;-80
2024/04/09 03:09:32;;;;;;;10.45;0.85;;;;;;;13.23;100.00;100260.44;5294732;26;20310;-80
2024/04/09 03:11:59;;;;;;;9.38;1.10;;;;;;;13.20;100.00;100252.75;5301790;26;20668;-80
2024/04/09 03:14:29;;;;;;;10.45;1.23;;;;;;;13.18;100.00;100250.25;5304329;26;20263;-80
2024/04/09 03:16:56;;;;;;;13.88;1.13;;;;;;;12.97;100.00;100253.63;5331397;26;20262;-80
2024/04/09 03:19:23;;;;;;;6.47;0.80;;;;;;;13.06;100.00;100295.66;5332441;26;20263;-80
2024/04/09 03:21:51;;;;;;;14.15;1.27;;;;;;;12.94;100.00;100274.97;5335443;26;20694;-80
2024/04/09 03:24:18;;;;;;;9.27;0.80;;;;;;;12.94;100.00;100289.34;5301994;26;20332;-80
2024/04/09 03:26:45;;;;;;;10.52;0.90;;;;;;;13.02;100.00;100304.53;5298556;26;20295;-80
2024/04/09 03:29:14;;;;;;;12.98;1.15;;;;;;;12.90;100.00;100285.47;5324768;26;20306;-80
2024/04/09 03:31:42;;;;;;;13.18;1.15;;;;;;;12.95;100.00;100310.00;5309194;26;20259;-80
2024/04/09 03:34:09;;;;;;;14.57;1.40;;;;;;;12.96;100.00;100322.56;5302998;26;20309;-80
2024/04/09 03:36:37;;;;;;;10.55;1.15;;;;;;;12.87;100.00;100337.53;5333925;26;20267;-79
2024/04/09 03:39:04;;;;;;;13.80;0.80;;;;;;;12.88;100.00;100347.34;5303505;26;20259;-80
2024/04/09 03:41:32;;;;;;;19.23;1.25;;;;;;;12.90;100.00;100342.50;5281169;27;20264;-80
2024/04/09 03:44:01;;;;;;;9.88;0.95;;;;;;;12.79;100.00;100346.06;5302199;26;20309;-80
2024/04/09 03:46:29;;;;;;;7.93;0.70;;;;;;;12.90;100.00;100361.50;5290448;26;20354;-80
2024/04/09 03:48:56;;;;;;;7.65;0.60;;;;;;;12.94;100.00;100351.84;5322930;26;20313;-80
2024/04/09 03:51:24;;;;;;;12.32;1.10;;;;;;;12.78;100.00;100359.88;5335109;26;20266;-80
2024/04/09 03:53:52;;;;;;;18.65;1.38;;;;;;;12.88;100.00;100355.50;5331314;26;20442;-80
2024/04/09 03:56:19;;;;;;;13.23;1.48;;;;;;;12.76;100.00;100360.09;5321557;26;20613;-80
2024/04/09 03:58:49;;;;;;;11.60;0.73;;;;;;;12.76;100.00;100370.97;5335772;26;20267;-80
2024/04/09 04:01:17;;;;;;;11.00;0.73;;;;;;;12.63;100.00;100368.47;5324990;26;20260;-80
2024/04/09 04:03:47;;;;;;;15.70;1.92;;;;;;;12.75;100.00;100391.03;5312592;26;20368;-80
2024/04/09 04:06:15;;;;;;;18.02;1.58;;;;;;;12.63;100.00;100376.59;5320418;26;20626;-79
2024/04/09 04:08:44;;;;;;;8.27;0.90;;;;;;;12.64;100.00;100389.13;5342798;26;20263;-79
2024/04/09 04:11:13;;;;;;;15.23;1.08;;;;;;;12.62;100.00;100391.22;5321717;26;20264;-80
2024/04/09 04:13:41;;;;;;;9.30;0.70;;;;;;;12.54;100.00;100369.03;5333987;26;20306;-79
2024/04/09 04:16:16;;;;;;;17.90;1.25;;;;;;;12.69;100.00;100381.09;5329230;26;20311;-79
2024/04/09 04:18:47;;;;;;;11.48;0.50;;;;;;;12.70;100.00;100404.47;5321218;26;20302;-80
2024/04/09 04:21:20;;;;;;;10.45;0.50;;;;;;;12.60;100.00;100409.66;5320396;26;20279;-80
2024/04/09 04:23:50;;;;;;;8.98;0.60;;;;;;;12.67;100.00;100442.97;5324062;26;20392;-80
2024/04/09 04:26:27;;;;;;;9.20;1.13;;;;;;;12.67;100.00;100432.09;5332632;26;20302;-79
2024/04/09 04:28:55;;;;;;;10.48;0.65;;;;;;;12.58;100.00;100441.59;5332399;26;20867;-80
2024/04/09 04:31:25;;;;;;;14.75;1.15;;;;;;;12.59;100.00;100429.72;5324008;26;20259;-79
2024/04/09 04:33:53;;;;;;;7.57;0.70;;;;;;;12.54;100.00;100432.28;5338584;26;20306;-80
2024/04/09 04:36:21;;;;;;;12.85;0.90;;;;;;;12.52;100.00;100428.97;5365454;26;20290;-79
2024/04/09 04:38:49;;;;;;;15.18;1.05;;;;;;;12.48;100.00;100433.22;5337290;26;20275;-79
2024/04/09 04:41:16;;;;;;;10.95;1.00;;;;;;;12.51;100.00;100459.91;5334580;26;20309;-80
2024/04/09 04:43:44;;;;;;;11.82;0.88;;;;;;;12.51;100.00;100475.34;5327807;26;20272;-80
2024/04/09 04:46:11;;;;;;;9.20;0.43;;;;;;;12.51;100.00;100459.06;5324561;26;20821;-79
2024/04/09 04:48:39;;;;;;;11.23;0.80;;;;;;;12.62;100.00;100471.84;5332481;26;20631;-79
2024/04/09 04:51:08;;;;;;;16.33;0.60;;;;;;;12.65;100.00;100490.38;5326323;26;20271;-80
2024/04/09 04:53:36;;;;;;;11.52;0.98;;;;;;;12.69;100.00;100495.13;5345632;26;20317;-79
2024/04/09 04:56:04;;;;;;;11.60;1.05;;;;;;;12.62;100.00;100499.81;5316879;26;20259;-79
2024/04/09 04:58:31;;;;;;;10.07;0.70;;;;;;;12.49;100.00;100486.44;5328282;26;20373;-79
2024/04/09 05:00:58;;;;;;;12.68;0.60;;;;;;;12.51;100.00;100489.75;5327235;26;20272;-79
2024/04/09 05:03:26;;;;;;;14.63;1.67;;;;;;;12.42;100.00;100482.16;5340495;26;21034;-79
2024/04/09 05:05:53;;;;;;;11.63;0.57;;;;;;;12.36;100.00;100483.06;5319866;26;20323;-80
2024/04/09 05:08:22;;;;;;;14.43;1.70;;;;;;;12.31;100.00;100481.06;5280351;26;20266;-80
2024/04/09 05:10:49;;;;;;;12.20;1.05;;;;;;;12.31;100.00;100491.91;5378264;26;20270;-79
2024/04/09 05:13:17;;;;;;;7.35;0.65;;;;;;;12.37;100.00;100495.56;5371149;26;20329;-79
2024/04/09 05:15:44;;;;;;;7.15;0.60;;;;;;;12.45;100.00;100506.09;5340324;26;20258;-79
2024/04/09 05:18:14;;;;;;;10.88;0.98;;;;;;;12.24;100.00;100485.72;5362513;26;20384;-79
2024/04/09 05:20:42;;;;;;;12.20;0.88;;;;;;;12.39;100.00;100494.31;5355001;26;20330;-79
2024/04/09 05:23:09;;;;;;;9.02;0.88;;;;;;;12.43;100.00;100495.50;5300059;26;20312;-79
2024/04/09 05:25:36;;;;;;;8.95;1.13;;;;;;;12.43;100.00;100503.66;5348377;26;20261;-79
2024/04/09 05:28:04;;;;;;;17.27;1.52;;;;;;;12.40;100.00;100495.94;5358783;26;20754;-79
2024/04/09 05:30:31;;;;;;;10.77;0.60;;;;;;;12.45;100.00;100487.94;5344823;26;20267;-78
2024/04/09 05:32:58;;;;;;;9.48;0.70;;;;;;;12.51;100.00;100487.03;5367212;26;20258;-79
2024/04/09 05:35:26;;;;;;;7.18;1.00;;;;;;;12.56;100.00;100480.91;5370225;26;20340;-80
2024/04/09 05:37:54;;;;;;;5.57;0.57;;;;;;;12.58;100.00;100498.63;5340058;26;20330;-80
2024/04/09 05:40:21;;;;;;;6.00;0.52;;;;;;;12.60;100.00;100504.66;5347979;26;20322;-79
2024/04/09 05:42:49;;;;;;;6.68;0.45;;;;;;;12.59;100.00;100500.31;5296248;26;20310;-79
2024/04/09 05:45:19;;;;;;;7.47;0.60;;;;;;;12.68;100.00;100520.63;5302825;26;20797;-79
2024/04/09 05:47:47;;;;;;;5.53;0.68;;;;;;;12.61;100.00;100509.03;5321624;26;20771;-79
2024/04/09 05:50:15;;;;;;;7.68;0.50;;;;;;;12.61;100.00;100502.75;5335659;26;20327;-79
2024/04/09 05:52:42;;;;;;;4.80;0.63;;;;;;;12.64;100.00;100505.88;5283134;26;20364;-79
2024/04/09 05:55:11;;;;;;;3.22;0.60;;;;;;;12.65;100.00;100526.50;5263972;27;20920;-79
2024/04/09 05:57:39;;;;;;;4.80;0.50;;;;;;;12.63;100.00;100523.22;5287795;26;20314;-78
2024/04/09 06:00:13;;;;;;;4.03;0.45;;;;;;;12.74;100.00;100506.13;5268184;27;20706;-79
2024/04/09 06:02:45;;;;;;;6.55;0.80;;;;;;;12.74;100.00;100514.28;5253288;27;20277;-79
2024/04/09 06:05:14;;;;;;;4.22;0.65;;;;;;;12.59;100.00;100511.16;5290464;26;20677;-79
2024/04/09 06:07:44;;;;;;;4.15;0.43;;;;;;;12.55;100.00;100509.13;5321711;26;20259;-79
2024/04/09 06:10:14;;;;;;;6.75;0.40;;;;;;;12.72;100.00;100535.41;5356738;26;20267;-79
2024/04/09 06:12:42;;;;;;;6.50;0.70;;;;;;;12.50;100.00;100507.09;5326248;26;20850;-79
2024/04/09 06:15:10;;;;;;;5.13;0.65;;;;;;;12.63;100.00;100523.22;5326888;26;20264;-79
2024/04/09 06:17:37;;;;;;;5.28;0.40;;;;;;;12.76;100.00;100550.19;5326489;26;20790;-79
2024/04/09 06:20:05;;;;;;;5.57;0.60;;;;;;;12.61;100.00;100509.03;5299762;26;20275;-79
2024/04/09 06:22:32;;;;;;;3.17;0.30;;;;;;;12.87;100.00;100541.22;5323816;26;20265;-79
2024/04/09 06:25:00;;;;;;;4.40;0.40;;;;;;;12.82;100.00;100527.53;5323195;26;20263;-79
2024/04/09 06:27:27;;;;;;;7.05;0.65;;;;;;;12.74;100.00;100537.91;5324461;26;20294;-79
2024/04/09 06:29:55;;;;;;;6.25;0.40;;;;;;;12.84;100.00;100536.28;5317541;26;20362;-79
2024/04/09 06:32:23;;;;;;;5.68;0.55;;;;;;;12.88;100.00;100534.78;5325196;26;20263;-78
2024/04/09 06:34:51;;;;;;;5.20;0.60;;;;;;;12.82;100.00;100537.56;5334109;26;20262;-80
2024/04/09 06:37:18;;;;;;;2.70;0.40;;;;;;;12.78;100.00;100536.38;5319222;26;20362;-78
2024/04/09 06:39:46;;;;;;;4.82;0.47;;;;;;;12.76;100.00;100525.75;5310792;26;20259;-78
2024/04/09 06:42:13;;;;;;;3.40;0.30;;;;;;;12.69;100.00;100538.56;5325940;26;20436;-79
2024/04/09 06:44:41;;;;;;;5.95;0.40;;;;;;;12.76;100.00;100550.19;5329938;26;20263;-79
2024/04/09 06:47:08;;;;;;;4.28;0.40;;;;;;;12.41;100.00;100565.47;5327456;26;20314;-79
2024/04/09 06:49:36;;;;;;;2.50;0.28;;;;;;;12.49;100.00;100573.28;5325635;26;20380;-79
2024/04/09 06:52:03;;;;;;;4.60;0.60;;;;;;;12.55;100.00;100577.81;5315821;26;20280;-78
2024/04/09 06:54:30;;;;;;;3.60;0.30;;;;;;;12.84;100.00;100579.75;5308708;26;20683;-79
2024/04/09 06:56:58;;;;;;;0.88;0.15;;;;;;;12.82;100.00;100560.13;5325482;26;20742;-78
2024/04/09 06:59:25;;;;;;;4.85;0.38;;;;;;;12.85;100.00;100543.38;5302524;26;20788;-78
2024/04/09 07:01:53;;;;;;;5.25;0.25;;;;;;;12.86;100.00;100572.19;5333206;26;20259;-80
2024/04/09 07:04:20;;;;;;;2.95;0.30;;;;;;;12.92;100.00;100554.97;5330134;26;20305;-78
2024/04/09 07:06:49;;;;;;;2.40;0.20;;;;;;;13.08;100.00;100592.41;5321944;26;20339;-78
2024/04/09 07:09:17;;;;;;;1.48;0.20;;;;;;;13.04;100.00;100582.22;5316188;26;20267;-78
2024/04/09 07:11:46;;;;;;;3.40;0.20;;;;;;;12.99;100.00;100561.16;5320005;26;20376;-79
2024/04/09 07:14:14;;;;;;;2.10;0.20;;;;;;;12.90;100.00;100600.53;5337602;26;20366;-78
2024/04/09 07:16:46;;;;;;;5.13;0.38;;;;;;;12.92;100.00;100595.72;5323728;26;20822;-78
2024/04/09 07:19:14;;;;;;;2.78;0.43;;;;;;;12.89;100.00;100588.03;5327784;26;20263;-78
2024/04/09 07:21:41;;;;;;;1.45;0.20;;;;;;;12.95;100.00;100597.97;5317310;26;20732;-80
2024/04/09 07:24:09;;;;;;;3.33;0.20;;;;;;;13.10;100.00;100595.69;5330489;26;20317;-79
2024/04/09 07:26:37;;;;;;;3.25;0.20;;;;;;;12.92;100.00;100582.13;5322636;26;20271;-78
2024/04/09 07:29:05;;;;;;;2.28;0.20;;;;;;;12.89;100.00;100607.03;5317529;26;20263;-78
2024/04/09 07:31:32;;;;;;;3.97;0.20;;;;;;;12.66;100.00;100597.94;5304544;26;20794;-78
2024/04/09 07:33:59;;;;;;;4.32;0.20;;;;;;;12.60;100.00;100605.13;5321264;26;20271;-79
2024/04/09 07:36:27;;;;;;;4.45;0.30;;;;;;;12.61;100.00;100617.63;5326250;26;20337;-78
2024/04/09 07:38:56;;;;;;;3.80;0.13;;;;;;;12.61;100.00;100650.22;5330338;26;20271;-79
2024/04/09 07:41:23;;;;;;;4.15;0.30;;;;;;;12.52;100.00;100613.56;5302758;26;20258;-78
2024/04/09 07:43:51;;;;;;;3.47;0.20;;;;;;;12.62;100.00;100630.13;5328729;26;20796;-78
2024/04/09 07:46:19;;;;;;;3.80;0.45;;;;;;;12.61;100.00;100628.50;5324397;26;22353;-78
2024/04/09 07:48:46;;;;;;;5.03;0.20;;;;;;;12.50;100.00;100625.72;5328005;26;20727;-78
2024/04/09 07:51:14;;;;;;;2.05;0.20;;;;;;;12.47;100.00;100599.00;5323574;26;20337;-78
2024/04/09 07:53:42;;;;;;;2.13;0.93;;;;;;;12.98;100.00;100608.41;5365725;26;20328;-78
2024/04/09 07:56:12;;;;;;;2.83;0.30;;;;;;;13.00;100.00;100613.59;5333804;26;20267;-78
2024/04/09 07:58:40;;;;;;;1.17;0.10;;;;;;;12.98;100.00;100641.00;5312486;26;20761;-79
2024/04/09 08:01:08;;;;;;;2.47;0.30;;;;;;;12.79;100.00;100642.06;5281977;27;20665;-78
2024/04/09 08:03:35;;;;;;;1.35;0.10;;;;;;;13.02;100.00;100635.97;5294837;26;20276;-78
2024/04/09 08:06:04;;;;;;;0.88;0.10;;;;;;;13.01;100.00;100651.41;5244354;26;20268;-79
2024/04/09 08:08:35;;;;;;;3.60;0.22;;;;;;;13.27;100.00;100651.06;5313767;26;20255;-78
2024/04/09 08:11:08;;;;;;;2.05;0.15;;;;;;;12.98;100.00;100630.13;5306519;26;20813;-78
2024/04/09 08:13:35;;;;;;;3.40;0.10;;;;;;;13.20;100.00;100654.94;5333197;26;20329;-78
2024/04/09 08:16:03;;;;;;;2.35;0.10;;;;;;;13.35;100.00;100658.06;5289451;26;20903;-78
2024/04/09 08:18:31;;;;;;;2.63;0.10;;;;;;;13.80;100.00;100667.41;5327903;26;20409;-79
2024/04/09 08:21:00;;;;;;;1.17;0.10;;;;;;;13.41;100.00;100662.56;5279941;26;20362;-79
2024/04/09 08:23:28;;;;;;;1.70;0.20;;;;;;;13.24;100.00;100648.81;5296806;26;20877;-78
2024/04/09 08:25:55;;;;;;;2.05;0.20;;;;;;;12.65;100.00;100645.97;5336750;26;20310;-79
2024/04/09 08:28:22;;;;;;;2.10;0.20;;;;;;;12.76;100.00;100628.94;5332012;26;20267;-78
2024/04/09 08:30:52;;;;;;;3.97;0.20;;;;;;;13.31;100.00;100640.56;5333590;26;20313;-79
2024/04/09 08:33:20;;;;;;;1.95;0.20;;;;;;;13.74;100.00;100674.63;5300477;26;20310;-79
2024/04/09 08:35:49;;;;;;;1.30;0.15;;;;;;;13.76;100.00;100677.94;5307322;26;20741;-79
2024/04/09 08:38:23;;;;;;;1.98;0.10;;;;;;;13.37;100.00;100700.28;5327602;26;20779;-79
2024/04/09 08:40:50;;;;;;;2.70;0.10;;;;;;;13.18;100.00;100674.19;5328964;26;20591;-79
2024/04/09 08:43:18;;;;;;;2.15;0.20;;;;;;;12.84;100.00;100666.66;5261493;26;20367;-79
2024/04/09 08:45:46;;;;;;;1.58;0.20;;;;;;;12.92;100.00;100674.50;5328346;26;20845;-79
2024/04/09 08:48:18;;;;;;;2.63;0.10;;;;;;;12.64;100.00;100687.78;5328331;26;20263;-80
2024/04/09 08:50:50;;;;;;;1.48;0.10;;;;;;;12.68;100.00;100653.69;5326196;26;20365;-79
2024/04/09 08:53:23;;;;;;;4.03;0.20;;;;;;;12.44;100.00;100683.59;5277091;27;20268;-79
2024/04/09 08:55:51;;;;;;;2.75;0.20;;;;;;;12.49;100.00;100709.03;5291638;27;20263;-79
2024/04/09 08:58:18;;;;;;;3.60;0.17;;;;;;;12.27;100.00;100680.66;5260053;27;20268;-79
2024/04/09 09:00:46;;;;;;;1.17;0.20;;;;;;;12.24;100.00;100686.50;5296280;27;20264;-79
2024/04/09 09:03:13;;;;;;;2.13;0.20;;;;;;;12.20;100.00;100676.31;5295237;27;20725;-79
2024/04/09 09:05:41;;;;;;;0.85;0.20;;;;;;;12.20;100.00;100666.31;5261169;27;20327;-80
2024/04/09 09:08:09;;;;;;;4.53;0.20;;;;;;;12.42;100.00;100700.09;5320041;26;20260;-80
2024/04/09 09:10:36;;;;;;;2.28;0.30;;;;;;;12.43;100.00;100681.94;5334051;26;20267;-78
2024/04/09 09:13:04;;;;;;;1.65;0.10;;;;;;;12.67;100.00;100709.06;5321991;26;20266;-79
2024/04/09 09:15:32;;;;;;;1.75;0.20;;;;;;;12.81;100.00;100705.13;5320457;26;20263;-79
2024/04/09 09:18:01;;;;;;;2.33;0.30;;;;;;;12.56;100.00;100687.22;5320369;26;20272;-79
2024/04/09 09:20:29;;;;;;;2.65;0.10;;;;;;;12.66;100.00;100715.53;5333589;26;20263;-78
2024/04/09 09:22:56;;;;;;;2.70;0.10;;;;;;;12.65;100.00;100700.28;5318035;26;20321;-79
2024/04/09 09:25:25;;;;;;;2.42;0.10;;;;;;;12.74;100.00;100715.22;5316858;26;20280;-78
2024/04/09 09:28:06;;;;;;;2.30;0.20;;;;;;;13.08;100.00;100717.38;5301137;26;20319;-79
2024/04/09 09:30:41;;;;;;;3.35;0.20;;;;;;;12.85;100.00;100709.06;5313004;26;20726;-78
2024/04/09 09:33:18;;;;;;;2.92;0.13;;;;;;;12.60;100.00;100708.28;5334229;26;20259;-78
2024/04/09 09:35:50;;;;;;;2.55;0.60;;;;;;;12.35;100.00;100650.50;5311211;26;20373;-79
2024/04/09 09:38:22;;;;;;;2.78;0.25;;;;;;;12.80;100.00;100692.59;5317599;26;20270;-78
2024/04/09 09:40:50;;;;;;;3.35;0.22;;;;;;;12.88;100.00;100686.03;5329504;26;20276;-78
2024/04/09 09:43:19;;;;;;;3.33;0.10;;;;;;;12.72;100.00;100706.50;5330298;26;20267;-79
2024/04/09 09:45:50;;;;;;;3.70;0.40;;;;;;;12.50;100.00;100667.25;5322763;26;20305;-79
2024/04/09 09:48:19;;;;;;;2.38;0.10;;;;;;;12.63;100.00;100696.97;5329304;26;20263;-79
2024/04/09 09:50:47;;;;;;;1.80;0.20;;;;;;;12.74;100.00;100704.34;5333104;26;20380;-80
2024/04/09 09:53:18;;;;;;;1.30;0.10;;;;;;;12.81;100.00;100698.84;5332110;26;20383;-80
2024/04/09 09:55:47;;;;;;;0.75;0.10;;;;;;;12.93;100.00;100713.34;5328376;26;20302;-80
2024/04/09 09:58:28;;;;;;;2.58;0.30;;;;;;;12.90;100.00;100703.75;5325272;26;20279;-80
2024/04/09 10:00:59;;;;;;;0.98;0.20;;;;;;;12.84;100.00;100707.41;5331946;26;20287;-79
2024/04/09 10:03:30;;;;;;;3.47;0.17;;;;;;;12.83;100.00;100711.16;5332236;26;20791;-80
2024/04/09 10:05:58;;;;;;;2.85;0.10;;;;;;;12.72;100.00;100682.03;5309552;26;20264;-79
2024/04/09 10:08:29;;;;;;;2.35;0.13;;;;;;;12.83;100.00;100681.28;5328682;26;20272;-79
2024/04/09 10:10:56;;;;;;;3.25;0.10;;;;;;;13.04;100.00;100699.03;5332366;26;20301;-79
2024/04/09 10:13:24;;;;;;;1.00;0.10;;;;;;;12.94;100.00;100690.56;5328653;26;20720;-79
2024/04/09 10:15:56;;;;;;;2.53;0.10;;;;;;;12.71;100.00;100687.69;5332417;26;20278;-80
2024/04/09 10:18:40;;;;;;;0.93;0.20;;;;;;;12.89;100.00;100696.69;5335057;26;20270;-80
2024/04/09 10:21:09;;;;;;;1.42;0.15;;;;;;;12.93;100.00;100699.75;5316349;26;20732;-79
2024/04/09 10:23:38;;;;;;;2.45;0.40;;;;;;;12.79;100.00;100695.53;5319487;26;20290;-79
2024/04/09 10:26:06;;;;;;;1.42;0.15;;;;;;;12.81;100.00;100698.84;5325389;26;20264;-79
2024/04/09 10:28:35;;;;;;;1.55;0.10;;;;;;;13.14;100.00;100688.47;5324429;26;20336;-79
2024/04/09 10:31:05;;;;;;;0.77;0.10;;;;;;;13.26;100.00;100681.22;5321845;26;20649;-79
2024/04/09 10:33:38;;;;;;;2.15;0.22;;;;;;;13.16;100.00;100692.63;5323608;26;20264;-80
2024/04/09 10:36:11;;;;;;;2.40;0.25;;;;;;;13.02;100.00;100701.97;5326923;26;20305;-79
2024/04/09 10:38:41;;;;;;;1.45;0.10;;;;;;;13.01;100.00;100711.19;5322773;26;20838;-80
2024/04/09 10:41:11;;;;;;;2.97;0.10;;;;;;;12.63;100.00;100677.13;5333287;26;20360;-79
2024/04/09 10:43:39;;;;;;;3.35;0.20;;;;;;;12.77;100.00;100711.22;5334334;26;20279;-79
2024/04/09 10:46:07;;;;;;;2.17;0.10;;;;;;;12.72;100.00;100720.06;5326362;26;20263;-79
2024/04/09 10:48:42;;;;;;;1.75;0.10;;;;;;;12.55;100.00;100691.84;5323058;26;20278;-79
2024/04/09 10:51:10;;;;;;;1.30;0.13;;;;;;;12.74;100.00;100723.38;5316417;26;20272;-79
2024/04/09 10:53:38;;;;;;;2.95;0.13;;;;;;;12.27;100.00;100702.34;5358877;26;20357;-79
2024/04/09 10:56:07;;;;;;;3.15;0.20;;;;;;;12.70;100.00;100730.31;5358551;26;20270;-79
2024/04/09 10:58:39;;;;;;;2.08;0.10;;;;;;;12.98;100.00;100717.06;5337331;26;20254;-79
2024/04/09 11:01:14;;;;;;;1.70;0.10;;;;;;;13.07;100.00;100704.84;5332327;26;20521;-79
2024/04/09 11:03:42;;;;;;;2.28;0.13;;;;;;;13.24;100.00;100732.22;5349306;26;20265;-79
2024/04/09 11:06:15;;;;;;;1.70;0.10;;;;;;;13.24;100.00;100730.34;5360037;26;20273;-79
2024/04/09 11:08:46;;;;;;;4.55;0.10;;;;;;;13.50;100.00;100735.44;5362088;26;21124;-79
2024/04/09 11:11:14;;;;;;;3.72;0.20;;;;;;;13.55;100.00;100723.88;5335009;26;20274;-80
2024/04/09 11:13:41;;;;;;;1.95;0.10;;;;;;;13.46;100.00;100731.50;5356875;26;20900;-79
2024/04/09 11:16:21;;;;;;;0.65;0.10;;;;;;;13.24;100.00;100724.06;5303263;26;20619;-79
2024/04/09 11:19:02;;;;;;;0.73;0.08;;;;;;;13.03;100.00;100744.38;5309922;26;20369;-79
2024/04/09 11:21:34;;;;;;;4.13;0.10;;;;;;;12.82;100.00;100727.69;5267946;26;20301;-79
2024/04/09 11:24:02;;;;;;;0.93;0.20;;;;;;;12.96;100.00;100727.31;5299432;26;20263;-79